• Join FlightAware (Why Join?)
  • Login
  • US Flag 
05:32PM EDT


 

Airport Tracker/Info


-or-


 

Live Flight TrackerFlight Track Log ✈ N966QS ✈ 27-Apr-2013 ✈ KIAD - KLAX

Flight Track Log - Related Links

Times and Time Zones

All times are in EDT time to prevent confusion due to time zone crossing. See the N966QS flight status page for this flight to view local times or setup timezone preferences in your user account.

Time Position Orientation Groundspeed Altitude Reporting Facility
EDT Latitude Longitude Course Direction KTS MPH feet Rate Location/Type
08:10PM 38.9167 -77.5667 284° West 225 259 3,900  Level Potomac TRACON
08:11PM 38.8917 -77.6453 248° West 242 278 6,800 2,880 Climbing Washington Center
08:12PM 38.8525 -77.7400 242° Southwest 262 302 10,100 3,000 Climbing Washington Center
08:13PM 38.8178 -77.8217 241° Southwest 276 318 12,700 2,460 Climbing Washington Center
08:14PM 38.7847 -77.9167 246° West 288 331 15,200 2,040 Climbing Washington Center
08:15PM 38.8425 -78.1624 284° West  Level FlightAware Approximate
08:15PM 38.8056 -78.0239 284° West 288 331 16,900  Level Washington Center
08:16PM 38.8344 -78.1314 289° West 303 349 17,100 480 Climbing Washington Center
08:17PM 38.8547 -78.2600 281° West 337 388 17,900 1,140 Climbing Washington Center
08:18PM 38.8536 -78.4014 269° West 372 428 19,400 1,560 Climbing Washington Center
08:19PM 38.8522 -78.5397 269° West 387 445 21,000 1,620 Climbing Washington Center
08:20PM 38.8506 -78.6892 269° West 405 466 22,700 1,680 Climbing Washington Center
08:21PM 38.8489 -78.8331 269° West 405 466 24,400 1,680 Climbing Washington Center
08:22PM 38.8469 -78.9794 269° West 405 466 26,100 1,800 Climbing Washington Center
08:23PM 38.8447 -79.1286 269° West 415 478 28,000 1,980 Climbing Washington Center
08:24PM 38.8422 -79.2778 269° West 420 483 30,200 1,680 Climbing Washington Center
08:25PM 38.8397 -79.4242 269° West 420 483 31,500 900 Climbing Washington Center
08:26PM 38.8361 -79.6000 269° West 425 489 32,000 660 Climbing Washington Center
08:27PM 38.8328 -79.7625 269° West 446 513 32,900 960 Climbing Washington Center
08:28PM 38.8292 -79.9219 268° West 458 527 34,000 960 Climbing Washington Center
08:29PM 38.8233 -80.0842 267° West 458 527 34,900 540 Climbing Washington Center
08:30PM 38.8172 -80.1850 266° West 450 518 35,000  Climbing Indianapolis Center
08:31PM 38.8122 -80.3778 268° West 453 521 35,000  Level Indianapolis Center
08:32PM 38.8089 -80.5381 269° West 451 519 35,000  Level Indianapolis Center
08:33PM 38.8031 -80.7000 267° West 453 521 35,000  Level Indianapolis Center
08:34PM 38.7981 -80.8603 268° West 452 520 35,000 600 Level Indianapolis Center
08:35PM 38.7928 -81.0194 268° West 449 517 36,300 1,080 Climbing Indianapolis Center
08:36PM 38.7881 -81.1731 268° West 436 502 37,300 540 Climbing Indianapolis Center
08:38PM 38.7761 -81.4858 267° West 432 497 38,000 180 Climbing Indianapolis Center
08:39PM 38.7700 -81.6425 267° West 438 504 38,000  Level Indianapolis Center
08:40PM 38.7656 -81.7797 268° West 438 504 38,000  Level Indianapolis Center
08:41PM 38.7578 -81.9656 267° West 437 503 38,000  Level Indianapolis Center
08:42PM 38.7514 -82.1231 267° West 443 510 38,000  Level Indianapolis Center
08:43PM 38.7456 -82.2814 267° West 445 512 38,000  Level Indianapolis Center
08:44PM 38.7389 -82.4400 267° West 445 512 38,000  Level Indianapolis Center
08:45PM 38.7322 -82.5989 267° West 447 514 38,000  Level Indianapolis Center
08:46PM 38.7253 -82.7600 267° West 451 519 38,000  Level Indianapolis Center
08:47PM 38.7186 -82.9178 267° West 446 513 38,100 540 Climbing Indianapolis Center
08:48PM 38.7117 -83.0750 267° West 443 510 39,100 900 Climbing Indianapolis Center
08:49PM 38.7039 -83.2392 267° West 434 499 40,000 840 Climbing Indianapolis Center
08:50PM 38.6972 -83.3928 267° West 429 494 40,900 480 Climbing Indianapolis Center
08:51PM 38.6892 -83.5467 266° West 429 494 41,000  Climbing Indianapolis Center
08:52PM 38.6808 -83.7064 266° West 443 510 41,000  Level Indianapolis Center
08:53PM 38.6736 -83.8647 267° West 444 511 41,000  Level Indianapolis Center
08:54PM 38.6639 -84.0267 266° West 450 518 41,000  Level Indianapolis Center
08:55PM 38.6564 -84.1872 267° West 449 517 41,000  Level Indianapolis Center
08:56PM 38.6550 -84.3489 269° West 450 518 41,000 -60 Level Indianapolis Center
08:57PM 38.6589 -84.5108 272° West 451 519 40,900  Descending Indianapolis Center
08:58PM 38.6625 -84.6503 272° West 450 518 41,000  Climbing Indianapolis Center
08:59PM 38.6642 -84.8133 271° West 454 522 41,000  Level Indianapolis Center
09:00PM 38.6681 -84.9767 272° West 458 527 41,000  Level Indianapolis Center
09:01PM 38.6717 -85.1397 272° West 456 525 41,000  Level Indianapolis Center
09:02PM 38.6739 -85.3031 271° West 454 522 41,000  Level Indianapolis Center
09:03PM 38.6761 -85.4664 271° West 455 524 41,000  Level Indianapolis Center
09:04PM 38.6783 -85.6322 271° West 461 531 41,000  Level Indianapolis Center
09:05PM 38.6797 -85.8003 271° West 468 539 41,000  Level Indianapolis Center
09:06PM 38.6822 -85.9758 271° West 468 539 41,000  Level Indianapolis Center
09:07PM 38.6833 -86.1422 271° West 468 539 41,000  Level Indianapolis Center
09:08PM 38.6839 -86.3064 270° West 462 532 41,000  Level Indianapolis Center
09:09PM 38.6844 -86.4703 270° West 460 529 41,000  Level Indianapolis Center
09:11PM 38.6850 -86.6328 270° West 458 527 41,000  Level Indianapolis Center
09:12PM 38.6847 -86.7958 270° West 459 528 41,000  Level Indianapolis Center
09:13PM 38.6858 -86.9578 271° West 458 527 41,000  Level Indianapolis Center
09:14PM 38.6861 -87.1192 270° West 458 527 41,000  Level Indianapolis Center
09:15PM 38.6861 -87.3142 270° West 459 528 41,000  Level Indianapolis Center
09:16PM 38.6853 -87.4758 270° West 457 526 41,000  Level Indianapolis Center
09:17PM 38.6844 -87.6367 270° West 455 524 41,000  Level Indianapolis Center
09:18PM 38.6831 -87.7981 269° West 453 521 41,000  Level Indianapolis Center
09:19PM 38.6822 -87.9622 270° West 459 528 41,000  Level Indianapolis Center
09:19PM 38.6806 -88.0281 268° West 456 525 41,000 180 Level Kansas City Center
09:20PM 38.6806 -88.1908 270° West 455 524 41,300 660 Climbing Kansas City Center
09:21PM 38.6792 -88.3508 269° West 454 522 42,400 780 Climbing Kansas City Center
09:22PM 38.6772 -88.5081 269° West 448 516 43,000 240 Climbing Kansas City Center
09:23PM 38.6750 -88.6636 269° West 443 510 43,000  Level Kansas City Center
09:24PM 38.6714 -88.8272 268° West 451 519 43,000  Level Kansas City Center
09:25PM 38.6689 -89.0258 269° West 457 526 43,000  Level Kansas City Center
09:26PM 38.6664 -89.1892 269° West 461 531 43,000  Level Kansas City Center
09:27PM 38.6625 -89.3536 268° West 464 534 43,000  Level Kansas City Center
09:28PM 38.6600 -89.5167 269° West 462 532 43,000  Level Kansas City Center
09:29PM 38.6564 -89.6803 268° West 466 536 43,000  Level Kansas City Center
09:30PM 38.6525 -89.8450 268° West 465 535 43,000  Level Kansas City Center
09:31PM 38.6489 -90.0114 268° West 466 536 43,000  Level Kansas City Center
09:32PM 38.6439 -90.1789 268° West 468 539 43,000  Level Kansas City Center
09:33PM 38.6383 -90.3436 268° West 467 537 43,000  Level Kansas City Center
09:34PM 38.6342 -90.5114 268° West 468 539 43,000  Level Kansas City Center
09:35PM 38.6281 -90.6956 268° West 478 550 43,000  Level Kansas City Center
09:36PM 38.6233 -90.8639 268° West 475 547 43,000  Level Kansas City Center
09:37PM 38.6186 -91.0344 268° West 479 551 43,000  Level Kansas City Center
09:38PM 38.6128 -91.2050 268° West 480 552 43,000  Level Kansas City Center
09:39PM 38.6069 -91.3750 268° West 479 551 43,000  Level Kansas City Center
09:40PM 38.6019 -91.5339 268° West 480 552 43,000  Level Kansas City Center
09:41PM 38.5931 -91.7367 267° West 477 549 43,000  Level Kansas City Center
09:42PM 38.5850 -91.9061 267° West 478 550 43,000  Level Kansas City Center
09:43PM 38.5789 -92.0756 267° West 478 550 43,000  Level Kansas City Center
09:44PM 38.5711 -92.2458 267° West 480 552 43,000  Level Kansas City Center
09:45PM 38.5631 -92.4169 267° West 483 556 43,000  Level Kansas City Center
09:46PM 38.5544 -92.5856 266° West 480 552 43,000  Level Kansas City Center
09:47PM 38.5464 -92.7564 267° West 481 554 43,000  Level Kansas City Center
09:48PM 38.5378 -92.9281 266° West 483 556 43,000  Level Kansas City Center
09:50PM 38.5283 -93.1000 266° West 486 559 43,000  Level Kansas City Center
09:51PM 38.5189 -93.2725 266° West 487 560 43,000  Level Kansas City Center
09:52PM 38.5103 -93.4425 266° West 483 556 43,000  Level Kansas City Center
09:53PM 38.5011 -93.6119 266° West 480 552 43,000  Level Kansas City Center
09:54PM 38.4922 -93.7969 267° West 478 550 43,000  Level Kansas City Center
09:55PM 38.4828 -93.9594 266° West 480 552 43,000  Level Kansas City Center
09:56PM 38.4733 -94.1206 266° West 476 548 43,000  Level Kansas City Center
09:57PM 38.4614 -94.3108 265° West 479 551 43,000  Level Kansas City Center
09:58PM 38.4511 -94.4725 265° West 477 549 43,000  Level Kansas City Center
09:59PM 38.4406 -94.6364 265° West 482 555 43,000  Level Kansas City Center
10:00PM 38.4278 -94.8264 265° West 481 554 43,000  Level Kansas City Center
10:01PM 38.4169 -94.9894 265° West 482 555 43,000  Level Kansas City Center
10:02PM 38.4058 -95.1536 265° West 482 555 43,000  Level Kansas City Center
10:03PM 38.3928 -95.3408 265° West 477 549 43,000  Level Kansas City Center
10:04PM 38.3817 -95.5042 265° West 480 552 43,000  Level Kansas City Center
10:05PM 38.3692 -95.6675 264° West 481 554 43,000  Level Kansas City Center
10:06PM 38.3578 -95.8297 265° West 480 552 43,000  Level Kansas City Center
10:07PM 38.3433 -96.0194 265° West 481 554 43,000  Level Kansas City Center
10:08PM 38.3311 -96.1800 265° West 477 549 43,000  Level Kansas City Center
10:09PM 38.3181 -96.3411 264° West 476 548 43,000  Level Kansas City Center
10:10PM 38.3047 -96.5061 264° West 478 550 43,000  Level Kansas City Center
10:11PM 38.2917 -96.6731 264° West 477 549 43,000  Level Kansas City Center
10:12PM 38.2767 -96.8400 264° West 477 549 43,000  Level Kansas City Center
10:13PM 38.2631 -97.0072 264° West 476 548 43,000  Level Kansas City Center
10:14PM 38.2492 -97.1761 264° West 480 552 43,000  Level Kansas City Center
10:15PM 38.2342 -97.3431 264° West 478 550 43,000  Level Kansas City Center
10:16PM 38.2156 -97.5442 263° West 480 552 43,000  Level Kansas City Center
10:17PM 38.2006 -97.7114 264° West 482 555 43,000  Level Kansas City Center
10:18PM 38.1856 -97.8781 264° West 482 555 43,000  Level Kansas City Center
10:19PM 38.1703 -98.0439 263° West 481 554 43,000  Level Kansas City Center
10:20PM 38.1542 -98.2097 263° West 481 554 43,000  Level Kansas City Center
10:21PM 38.1378 -98.3775 263° West 483 556 43,000  Level Kansas City Center
10:22PM 38.1214 -98.5475 263° West 487 560 43,000  Level Kansas City Center
10:23PM 38.1047 -98.7169 263° West 486 559 43,000  Level Kansas City Center
10:24PM 38.0869 -98.8864 262° West 486 559 43,000  Level Kansas City Center
10:25PM 38.0697 -99.0567 263° West 488 562 43,000  Level Kansas City Center
10:26PM 38.0531 -99.2264 263° West 487 560 43,000  Level Kansas City Center
10:27PM 38.0342 -99.3969 262° West 488 562 43,000  Level Kansas City Center
10:28PM 38.0142 -99.5844 262° West 486 559 43,000  Level Kansas City Center
10:29PM 37.9961 -99.7475 262° West 488 562 43,000  Level Kansas City Center
10:30PM 37.9756 -99.9361 262° West 486 559 43,000  Level Kansas City Center
10:31PM 37.9578 -100.0975 262° West 485 558 43,000  Level Kansas City Center
10:32PM 37.9389 -100.2597 262° West 487 560 43,000  Level Kansas City Center
10:33PM 37.9172 -100.4475 262° West 486 559 43,000  Level Kansas City Center
10:34PM 37.8981 -100.6081 261° West 486 559 43,000  Level Kansas City Center
10:35PM 37.8797 -100.7658 262° West 481 554 43,000  Level Kansas City Center
10:36PM 37.8567 -100.9497 261° West 481 554 43,000  Level Kansas City Center
10:37PM 37.8369 -101.1072 261° West 481 554 43,000  Level Kansas City Center
10:38PM 37.8178 -101.2661 261° West 481 554 43,000  Level Kansas City Center
10:39PM 37.7942 -101.4517 261° West 481 554 43,000  Level Kansas City Center
10:40PM 37.7750 -101.6106 261° West 481 554 43,000  Level Kansas City Center
10:41PM 37.7614 -101.7161 261° West 479 551 43,000  Level Denver Center
10:42PM 37.7386 -101.9022 261° West 481 554 43,000  Level Denver Center
10:43PM 37.7175 -102.0631 261° West 484 557 43,000  Level Denver Center
10:44PM 37.6964 -102.2225 261° West 483 556 43,000  Level Denver Center
10:45PM 37.6722 -102.4075 261° West 480 552 43,000  Level Denver Center
10:46PM 37.6511 -102.5614 260° West 482 555 43,000  Level Denver Center
10:47PM 37.6250 -102.7472 260° West 481 554 43,000  Level Denver Center
10:48PM 37.6039 -102.9072 261° West 484 557 43,000  Level Denver Center
10:49PM 37.5817 -103.0672 260° West 485 558 43,000  Level Denver Center
10:50PM 37.5556 -103.2547 260° West 485 558 43,000  Level Denver Center
10:51PM 37.5347 -103.4067 260° West 485 558 43,000  Level Denver Center
10:52PM 37.5097 -103.5767 260° West 488 562 43,000  Level Denver Center
10:53PM 37.4831 -103.7633 260° West 484 557 43,000  Level Denver Center
10:54PM 37.4592 -103.9261 260° West 484 557 43,000  Level Denver Center
10:55PM 37.4350 -104.0925 260° West 489 563 43,000  Level Denver Center
10:56PM 37.4097 -104.2533 259° West 486 559 43,000  Level Denver Center
10:57PM 37.3822 -104.4403 260° West 484 557 43,000  Level Denver Center
10:58PM 37.3578 -104.6011 259° West 488 562 43,000  Level Denver Center
10:59PM 37.3244 -104.8128 259° West 486 559 43,000  Level Denver Center
11:00PM 37.3000 -104.9719 259° West 486 559 43,000  Level Denver Center
11:01PM 37.2764 -105.1308 259° West 485 558 43,000  Level Denver Center
11:02PM 37.2458 -105.3161 258° West 486 559 43,000  Level Denver Center
11:03PM 37.2211 -105.4753 259° West 485 558 43,000  Level Denver Center
11:04PM 37.1936 -105.6328 258° West 484 557 43,000  Level Denver Center
11:05PM 37.1697 -105.7922 259° West 487 560 43,000  Level Denver Center
11:06PM 37.1375 -105.9853 258° West 485 558 43,000  Level Denver Center
11:07PM 37.1111 -106.1439 258° West 486 559 43,000  Level Denver Center
11:08PM 37.0844 -106.3022 258° West 486 559 43,000  Level Denver Center
11:09PM 37.0542 -106.4878 258° West 486 559 43,000  Level Denver Center
11:10PM 37.0261 -106.6456 257° West 485 558 43,000  Level Denver Center
11:11PM 37.0006 -106.8050 259° West 487 560 43,000  Level Denver Center
11:12PM 36.9678 -106.9881 257° West 483 556 43,000  Level Denver Center
11:13PM 36.9408 -107.1458 258° West 483 556 43,000  Level Denver Center
11:14PM 36.9128 -107.3028 257° West 485 558 43,000  Level Denver Center
11:15PM 36.8797 -107.4858 257° West 483 556 43,000  Level Denver Center
11:16PM 36.8525 -107.6428 258° West 485 558 43,000  Level Denver Center
11:17PM 36.8244 -107.7989 257° West 483 556 43,000  Level Denver Center
11:18PM 36.7914 -107.9831 257° West 487 560 43,000  Level Denver Center
11:19PM 36.7625 -108.1392 257° West 486 559 43,000  Level Denver Center
11:20PM 36.7339 -108.2958 257° West 487 560 43,000  Level Denver Center
11:21PM 36.6994 -108.4783 257° West 487 560 43,000  Level Denver Center
11:22PM 36.6700 -108.6358 257° West 488 562 43,000  Level Denver Center
11:23PM 36.6400 -108.7925 257° West 489 563 43,000  Level Denver Center
11:24PM 36.6047 -108.9736 256° West 486 559 43,000  Level Denver Center
11:25PM 36.5747 -109.1297 257° West 488 562 43,000  Level Denver Center
11:26PM 36.5444 -109.2839 256° West 484 557 43,000  Level Denver Center
11:27PM 36.5086 -109.4661 256° West 487 560 43,000  Level Denver Center
11:28PM 36.4781 -109.6206 256° West 485 558 43,000  Level Denver Center
11:29PM 36.4467 -109.7756 256° West 485 558 43,000  Level Denver Center
11:30PM 36.4103 -109.9558 256° West 485 558 43,000  Level Denver Center
11:31PM 36.3786 -110.1111 256° West 486 559 43,000  Level Denver Center
11:32PM 36.3456 -110.2781 256° West 485 558 43,000  Level Denver Center
11:33PM 36.3106 -110.4408 255° West 486 559 43,000  Level Denver Center
11:34PM 36.2772 -110.6025 256° West 486 559 43,000  Level Denver Center
11:36PM 36.2433 -110.7656 256° West 487 560 43,000  Level Denver Center
11:37PM 36.2089 -110.9281 255° West 487 560 43,000  Level Denver Center
11:38PM 36.1753 -111.0917 256° West 490 564 43,000  Level Denver Center
11:39PM 36.1406 -111.2528 255° West 487 560 43,000  Level Denver Center
11:40PM 36.1069 -111.4150 256° West 487 560 43,000  Level Denver Center
11:41PM 36.0708 -111.5786 255° West 492 566 43,000  Level Denver Center
11:42PM 36.0356 -111.7403 255° West 489 563 43,000  Level Denver Center
11:43PM 35.9994 -111.9044 255° West 489 563 43,000  Level Los Angeles Center
11:44PM 35.9653 -112.0544 254° West 490 564 43,000  Level Los Angeles Center
11:45PM 35.9300 -112.2156 255° West 491 565 43,000  Level Los Angeles Center
11:46PM 35.8867 -112.4069 254° West 489 563 43,000  Level Los Angeles Center
11:47PM 35.8364 -112.5628 248° West 493 567 43,000  Level Los Angeles Center
11:48PM 35.7817 -112.7158 246° West 494 568 43,000  Level Los Angeles Center
11:49PM 35.7281 -112.8689 247° West 493 567 43,000  Level Los Angeles Center
11:50PM 35.6728 -113.0189 246° West 491 565 43,000  Level Los Angeles Center
11:51PM 35.6181 -113.1717 246° West 488 562 43,000  Level Los Angeles Center
11:52PM 35.5533 -113.3525 246° West 498 573 43,000  Level Los Angeles Center
11:53PM 35.4978 -113.5025 246° West 492 566 43,000  Level Los Angeles Center
11:54PM 35.4431 -113.6536 246° West 491 565 43,000  Level Los Angeles Center
11:55PM 35.3875 -113.8039 246° West 489 563 43,000  Level Los Angeles Center
11:56PM 35.3278 -113.9669 246° West 487 560 43,000  Level Los Angeles Center
11:57PM 35.2708 -114.1208 246° West 494 568 43,000  Level Los Angeles Center
11:58PM 35.2142 -114.2733 246° West 493 567 43,000  Level Los Angeles Center
11:59PM 35.1564 -114.4267 245° Southwest 494 568 43,000  Level Los Angeles Center
12:00AM 35.0992 -114.5806 246° West 497 572 43,000  Level Los Angeles Center
12:01AM 35.0392 -114.7344 245° Southwest 498 573 43,000  Level Los Angeles Center
12:02AM 34.9819 -114.8872 245° Southwest 494 568 43,000  Level Los Angeles Center
12:03AM 34.9242 -115.0389 245° Southwest 491 565 43,000  Level Los Angeles Center
12:04AM 34.8672 -115.1892 245° Southwest 490 564 43,000  Level Los Angeles Center
12:05AM 34.8089 -115.3389 245° Southwest 490 564 43,000  Level Los Angeles Center
12:06AM 34.7519 -115.4897 245° Southwest 489 563 43,000 -360 Level Los Angeles Center
12:07AM 34.6931 -115.6411 245° Southwest 488 562 42,300 -1,140 Descending Los Angeles Center
12:08AM 34.6356 -115.7872 244° Southwest 484 557 40,700 -1,980 Descending Los Angeles Center
12:09AM 34.5761 -115.9372 244° Southwest 491 565 38,300 -2,820 Descending Los Angeles Center
12:10AM 34.5047 -116.1186 245° Southwest 497 572 35,000 -3,060 Descending Los Angeles Center
12:11AM 34.4431 -116.2758 245° Southwest 513 590 32,100 -2,640 Descending Los Angeles Center
12:12AM 34.3800 -116.4325 244° Southwest 516 594 29,700 -2,460 Descending Los Angeles Center
12:13AM 34.3172 -116.5883 244° Southwest 516 594 27,200 -2,580 Descending Los Angeles Center
12:14AM 34.2550 -116.7417 244° Southwest 508 585 24,500 -2,460 Descending Los Angeles Center
12:15AM 34.1947 -116.8900 244° Southwest 494 568 22,200 -2,100 Descending Los Angeles Center
12:16AM 34.1442 -117.0169 244° Southwest 425 489 20,300 -1,620 Descending Los Angeles Center
12:17AM 34.0953 -117.1353 244° Southwest 394 453 19,000 -1,440 Descending Los Angeles Center
12:18AM 34.0489 -117.2506 244° Southwest 413 475 17,500 -2,940 Descending Los Angeles Center
12:19AM 34.0311 -117.4161 263° West 417 480 13,100 -2,760 Descending Los Angeles Center
12:20AM 34.0197 -117.5453 264° West 397 457 12,000 -780 Descending Los Angeles Center
12:21AM 34.0086 -117.6678 264° West 377 434 11,600 -1,020 Descending Los Angeles Center
12:22AM 33.9981 -117.7767 263° West 333 383 10,000 -1,500 Descending Los Angeles Center
12:23AM 33.9894 -117.8781 264° West 292 336 8,600 -1,560 Descending Los Angeles Center
12:24AM 33.9797 -117.9625 262° West 282 325 6,900 -1,740 Descending Los Angeles Center
12:25AM 33.9667 -118.0500 260° West 260 299 5,400 -1,500 Descending Southern California TRACON
12:26AM 33.9667 -118.1333 270° West 228 262 4,100 -1,200 Descending Southern California TRACON
12:27AM 33.9500 -118.2000 253° West 208 239 3,000 -1,080 Descending Southern California TRACON
12:28AM 33.9500 -118.2667 270° West 193 222 2,000 -900 Descending Southern California TRACON
12:29AM 33.9500 -118.3167 270° West 129 148 1,300 -720 Descending Southern California TRACON
12:30AM 33.9333 -118.3500 239° Southwest 129 148 600 -600 Descending Southern California TRACON
12:31AM 33.9378 -118.3878 278° West 132 152 100 -480 Descending Los Angeles Center
12:33AM 33.9333 -118.4000 259° West  Level FlightAware Approximate